Time,TemperatureF,DewpointF,PressureIn,WindDirection,WindDirectionDegrees,WindSpeedMPH,WindSpeedGustMPH,Humidity,HourlyPrecipIn,Conditions,Clouds,dailyrainin,SoftwareType,DateUTC
2013-02-17 00:02:00,26.0,13.0,30.13,WSW,240,0.0,0.0,57,-99.99,,,-99.99,,2013-02-17 06:02:00,
2013-02-17 00:11:00,26.0,13.0,30.13,SW,235,0.0,2.0,57,-99.99,,,-99.99,,2013-02-17 06:11:00,
2013-02-17 00:21:00,26.0,13.0,30.13,SW,235,0.0,2.0,57,-99.99,,,-99.99,,2013-02-17 06:21:00,
2013-02-17 00:31:00,26.0,13.0,30.13,SSW,210,0.0,0.0,59,-99.99,,,-99.99,,2013-02-17 06:31:00,
2013-02-17 00:41:00,26.0,13.0,30.13,SSW,210,0.0,1.0,58,-99.99,,,-99.99,,2013-02-17 06:41:00,
2013-02-17 00:51:00,26.0,13.0,30.13,SSW,210,0.0,1.0,58,-99.99,,,-99.99,,2013-02-17 06:51:00,
2013-02-17 01:01:00,25.0,12.0,30.13,WSW,240,0.0,2.0,59,-99.99,,,-99.99,,2013-02-17 07:01:00,
2013-02-17 01:11:00,25.0,13.0,30.12,SW,220,0.0,0.0,60,-99.99,,,-99.99,,2013-02-17 07:11:00,
2013-02-17 01:21:00,25.0,13.0,30.12,SW,220,0.0,0.0,60,-99.99,,,-99.99,,2013-02-17 07:21:00,
2013-02-17 01:31:00,25.0,13.0,30.12,NNW,330,0.0,0.0,60,-99.99,,,-99.99,,2013-02-17 07:31:00,
2013-02-17 01:41:00,25.0,13.0,30.12,WNW,290,1.0,3.0,60,-99.99,,,-99.99,,2013-02-17 07:41:00,
2013-02-17 01:51:00,25.0,13.0,30.12,WNW,290,1.0,3.0,60,-99.99,,,-99.99,,2013-02-17 07:51:00,
2013-02-17 02:01:00,25.0,14.0,30.12,NNW,330,0.0,2.0,63,-99.99,,,-99.99,,2013-02-17 08:01:00,
2013-02-17 02:11:00,25.0,14.0,30.12,NE,35,0.0,2.0,63,-99.99,,,-99.99,,2013-02-17 08:11:00,
2013-02-17 02:21:00,25.0,14.0,30.12,NE,35,0.0,2.0,63,-99.99,,,-99.99,,2013-02-17 08:21:00,
2013-02-17 02:31:00,24.0,14.0,30.12,SW,215,0.0,1.0,63,-99.99,,,-99.99,,2013-02-17 08:31:00,
2013-02-17 02:42:00,24.0,14.0,30.12,SW,215,0.0,0.0,64,-99.99,,,-99.99,,2013-02-17 08:42:00,
2013-02-17 02:52:00,24.0,14.0,30.12,SW,215,0.0,0.0,64,-99.99,,,-99.99,,2013-02-17 08:52:00,
2013-02-17 03:02:00,24.0,14.0,30.12,SW,215,0.0,0.0,65,-99.99,,,-99.99,,2013-02-17 09:02:00,
2013-02-17 03:11:00,24.0,14.0,30.12,SW,215,0.0,0.0,64,-99.99,,,-99.99,,2013-02-17 09:11:00,
2013-02-17 03:21:00,24.0,14.0,30.12,SW,215,0.0,0.0,64,-99.99,,,-99.99,,2013-02-17 09:21:00,
2013-02-17 03:31:00,24.0,14.0,30.12,West,275,0.0,1.0,64,-99.99,,,-99.99,,2013-02-17 09:31:00,
2013-02-17 03:42:00,24.0,14.0,30.12,SW,225,1.0,1.0,65,-99.99,,,-99.99,,2013-02-17 09:42:00,
2013-02-17 03:51:00,24.0,14.0,30.12,SW,225,1.0,1.0,65,-99.99,,,-99.99,,2013-02-17 09:51:00,
2013-02-17 04:01:00,25.0,14.0,30.12,WNW,285,0.0,0.0,64,-99.99,,,-99.99,,2013-02-17 10:01:00,
2013-02-17 04:11:00,25.0,14.0,30.12,WSW,240,0.0,0.0,64,-99.99,,,-99.99,,2013-02-17 10:11:00,
2013-02-17 04:21:00,25.0,14.0,30.12,WSW,240,0.0,0.0,64,-99.99,,,-99.99,,2013-02-17 10:21:00,
2013-02-17 04:31:00,25.0,14.0,30.11,North,355,0.0,1.0,63,-99.99,,,-99.99,,2013-02-17 10:31:00,
2013-02-17 04:41:00,25.0,15.0,30.11,WNW,300,0.0,0.0,64,-99.99,,,-99.99,,2013-02-17 10:41:00,
2013-02-17 04:52:00,25.0,15.0,30.11,WNW,300,0.0,0.0,64,-99.99,,,-99.99,,2013-02-17 10:52:00,
2013-02-17 05:01:00,25.0,15.0,30.11,WNW,295,0.0,2.0,64,-99.99,,,-99.99,,2013-02-17 11:01:00,
2013-02-17 05:11:00,25.0,15.0,30.11,SSW,210,0.0,0.0,66,-99.99,,,-99.99,,2013-02-17 11:11:00,
2013-02-17 05:21:00,25.0,15.0,30.11,SSW,210,0.0,0.0,66,-99.99,,,-99.99,,2013-02-17 11:21:00,
2013-02-17 05:32:00,25.0,15.0,30.12,West,265,0.0,0.0,66,-99.99,,,-99.99,,2013-02-17 11:32:00,
2013-02-17 05:42:00,25.0,16.0,30.12,SW,235,0.0,0.0,67,-99.99,,,-99.99,,2013-02-17 11:42:00,
2013-02-17 05:52:00,25.0,16.0,30.12,SW,235,0.0,0.0,67,-99.99,,,-99.99,,2013-02-17 11:52:00,
2013-02-17 06:03:00,25.0,16.0,30.13,WSW,250,0.0,1.0,68,-99.99,,,-99.99,,2013-02-17 12:03:00,
2013-02-17 06:11:00,25.0,16.0,30.13,WNW,290,0.0,1.0,69,-99.99,,,-99.99,,2013-02-17 12:11:00,
2013-02-17 06:22:00,25.0,16.0,30.13,WNW,290,0.0,1.0,69,-99.99,,,-99.99,,2013-02-17 12:22:00,
2013-02-17 06:32:00,25.0,16.0,30.13,East,95,0.0,0.0,68,-99.99,,,-99.99,,2013-02-17 12:32:00,
2013-02-17 06:42:00,25.0,16.0,30.13,SE,140,0.0,0.0,68,-99.99,,,-99.99,,2013-02-17 12:42:00,
2013-02-17 06:52:00,25.0,16.0,30.13,SE,140,0.0,0.0,68,-99.99,,,-99.99,,2013-02-17 12:52:00,
2013-02-17 07:02:00,25.0,16.0,30.13,WNW,290,0.0,0.0,68,-99.99,,,-99.99,,2013-02-17 13:02:00,
2013-02-17 07:12:00,25.0,16.0,30.13,NE,35,0.0,1.0,68,-99.99,,,-99.99,,2013-02-17 13:12:00,
2013-02-17 07:22:00,25.0,16.0,30.13,NE,35,0.0,1.0,68,-99.99,,,-99.99,,2013-02-17 13:22:00,
2013-02-17 07:32:00,26.0,17.0,30.13,SSW,205,0.0,1.0,68,-99.99,,,-99.99,,2013-02-17 13:32:00,
2013-02-17 07:41:00,27.0,17.0,30.13,ENE,70,1.0,2.0,65,-99.99,,,-99.99,,2013-02-17 13:41:00,
2013-02-17 07:51:00,27.0,17.0,30.13,ENE,70,1.0,2.0,65,-99.99,,,-99.99,,2013-02-17 13:51:00,
2013-02-17 08:01:00,27.0,17.0,30.13,South,190,0.0,2.0,64,-99.99,,,-99.99,,2013-02-17 14:01:00,
2013-02-17 08:11:00,28.0,14.0,30.13,SSE,165,1.0,5.0,54,-99.99,,,-99.99,,2013-02-17 14:11:00,
2013-02-17 08:21:00,28.0,14.0,30.13,SSE,165,1.0,5.0,54,-99.99,,,-99.99,,2013-02-17 14:21:00,
2013-02-17 08:32:00,29.0,14.0,30.13,South,180,1.0,5.0,52,-99.99,,,-99.99,,2013-02-17 14:32:00,
2013-02-17 08:42:00,29.0,13.0,30.13,SSW,205,1.0,4.0,50,-99.99,,,-99.99,,2013-02-17 14:42:00,
2013-02-17 08:52:00,29.0,13.0,30.13,SSW,205,1.0,4.0,50,-99.99,,,-99.99,,2013-02-17 14:52:00,
2013-02-17 09:02:00,31.0,13.0,30.13,South,185,1.0,8.0,48,-99.99,,,-99.99,,2013-02-17 15:02:00,
2013-02-17 09:11:00,31.0,13.0,30.14,SSE,155,2.0,6.0,47,-99.99,,,-99.99,,2013-02-17 15:11:00,
2013-02-17 09:21:00,31.0,13.0,30.14,SSE,155,2.0,6.0,47,-99.99,,,-99.99,,2013-02-17 15:21:00,
2013-02-17 09:32:00,31.0,12.0,30.15,SSE,165,3.0,8.0,46,-99.99,,,-99.99,,2013-02-17 15:32:00,
2013-02-17 09:42:00,31.0,14.0,30.14,South,170,2.0,9.0,47,-99.99,,,-99.99,,2013-02-17 15:42:00,
2013-02-17 09:52:00,31.0,14.0,30.14,South,170,2.0,9.0,47,-99.99,,,-99.99,,2013-02-17 15:52:00,
2013-02-17 10:01:00,32.0,14.0,30.14,East,95,4.0,9.0,47,-99.99,,,-99.99,,2013-02-17 16:01:00,
2013-02-17 10:11:00,33.0,15.0,30.14,SSE,165,1.0,9.0,47,-99.99,,,-99.99,,2013-02-17 16:11:00,
2013-02-17 10:21:00,33.0,15.0,30.14,SSE,165,1.0,9.0,47,-99.99,,,-99.99,,2013-02-17 16:21:00,
2013-02-17 10:32:00,34.0,15.0,30.14,SE,145,4.0,8.0,44,-99.99,,,-99.99,,2013-02-17 16:32:00,
2013-02-17 10:42:00,35.0,15.0,30.14,SSE,155,5.0,11.0,43,-99.99,,,-99.99,,2013-02-17 16:42:00,
2013-02-17 10:51:00,35.0,15.0,30.14,SSE,155,5.0,11.0,43,-99.99,,,-99.99,,2013-02-17 16:51:00,
2013-02-17 11:02:00,36.0,13.0,30.14,SSE,150,6.0,11.0,38,-99.99,,,-99.99,,2013-02-17 17:02:00,
2013-02-17 11:11:00,37.0,14.0,30.13,SSE,150,6.0,13.0,38,-99.99,,,-99.99,,2013-02-17 17:11:00,
2013-02-17 11:21:00,37.0,14.0,30.13,SSE,150,6.0,13.0,38,-99.99,,,-99.99,,2013-02-17 17:21:00,
2013-02-17 11:32:00,38.0,14.0,30.13,South,175,6.0,12.0,37,-99.99,,,-99.99,,2013-02-17 17:32:00,
2013-02-17 11:42:00,39.0,15.0,30.13,SSE,150,6.0,17.0,38,-99.99,,,-99.99,,2013-02-17 17:42:00,
2013-02-17 11:52:00,39.0,15.0,30.13,SSE,150,6.0,17.0,38,-99.99,,,-99.99,,2013-02-17 17:52:00,
2013-02-17 12:02:00,39.0,15.0,30.13,SSE,155,4.0,14.0,37,-99.99,,,-99.99,,2013-02-17 18:02:00,
2013-02-17 12:11:00,40.0,15.0,30.12,SSE,165,6.0,12.0,36,-99.99,,,-99.99,,2013-02-17 18:11:00,
2013-02-17 12:22:00,40.0,15.0,30.12,SSE,165,6.0,12.0,36,-99.99,,,-99.99,,2013-02-17 18:22:00,
2013-02-17 12:33:00,41.0,16.0,30.10,South,175,8.0,18.0,36,-99.99,,,-99.99,,2013-02-17 18:33:00,
2013-02-17 12:42:00,41.0,15.0,30.10,SSW,205,6.0,15.0,35,-99.99,,,-99.99,,2013-02-17 18:42:00,
2013-02-17 12:52:00,41.0,15.0,30.10,SSW,205,6.0,15.0,35,-99.99,,,-99.99,,2013-02-17 18:52:00,
2013-02-17 13:01:00,42.0,15.0,30.09,SW,230,6.0,14.0,33,-99.99,,,-99.99,,2013-02-17 19:01:00,
2013-02-17 13:11:00,42.0,16.0,30.08,South,170,5.0,12.0,34,-99.99,,,-99.99,,2013-02-17 19:11:00,
2013-02-17 13:21:00,42.0,16.0,30.08,South,170,5.0,12.0,34,-99.99,,,-99.99,,2013-02-17 19:21:00,
2013-02-17 13:32:00,44.0,16.0,30.07,SSW,195,6.0,12.0,33,-99.99,,,-99.99,,2013-02-17 19:32:00,
2013-02-17 13:42:00,44.0,15.0,30.06,SW,215,9.0,17.0,31,-99.99,,,-99.99,,2013-02-17 19:42:00,
2013-02-17 13:51:00,44.0,15.0,30.06,SW,215,9.0,17.0,31,-99.99,,,-99.99,,2013-02-17 19:51:00,
2013-02-17 14:02:00,45.0,16.0,30.05,SSW,210,4.0,15.0,31,-99.99,,,-99.99,,2013-02-17 20:02:00,
2013-02-17 14:11:00,45.0,16.0,30.04,SSW,195,7.0,14.0,31,-99.99,,,-99.99,,2013-02-17 20:11:00,
2013-02-17 14:21:00,45.0,16.0,30.04,SSW,195,7.0,14.0,31,-99.99,,,-99.99,,2013-02-17 20:21:00,
2013-02-17 14:32:00,46.0,17.0,30.04,South,170,8.0,15.0,31,-99.99,,,-99.99,,2013-02-17 20:32:00,
2013-02-17 14:42:00,45.0,16.0,30.04,SSE,165,6.0,15.0,30,-99.99,,,-99.99,,2013-02-17 20:42:00,
2013-02-17 14:52:00,45.0,16.0,30.04,SSE,165,6.0,15.0,30,-99.99,,,-99.99,,2013-02-17 20:52:00,
2013-02-17 15:02:00,47.0,18.0,30.02,SE,145,8.0,16.0,31,-99.99,,,-99.99,,2013-02-17 21:02:00,
2013-02-17 15:11:00,47.0,18.0,30.02,SSE,155,7.0,17.0,31,-99.99,,,-99.99,,2013-02-17 21:11:00,
2013-02-17 15:21:00,47.0,18.0,30.02,SSE,155,7.0,17.0,31,-99.99,,,-99.99,,2013-02-17 21:21:00,
2013-02-17 15:32:00,47.0,19.0,30.01,SSW,195,9.0,19.0,32,-99.99,,,-99.99,,2013-02-17 21:32:00,
2013-02-17 15:42:00,48.0,20.0,30.01,SW,230,9.0,16.0,33,-99.99,,,-99.99,,2013-02-17 21:42:00,
2013-02-17 15:52:00,48.0,20.0,30.01,SW,230,9.0,16.0,33,-99.99,,,-99.99,,2013-02-17 21:52:00,
2013-02-17 16:01:00,48.0,19.0,30.00,SE,145,9.0,18.0,31,-99.99,,,-99.99,,2013-02-17 22:01:00,
2013-02-17 16:12:00,48.0,20.0,29.99,SSW,210,5.0,15.0,32,-99.99,,,-99.99,,2013-02-17 22:12:00,
2013-02-17 16:22:00,48.0,20.0,29.99,SSW,210,5.0,15.0,32,-99.99,,,-99.99,,2013-02-17 22:22:00,
2013-02-17 16:32:00,49.0,20.0,29.99,South,190,7.0,16.0,32,-99.99,,,-99.99,,2013-02-17 22:32:00,
2013-02-17 16:42:00,48.0,20.0,29.99,SE,125,6.0,15.0,32,-99.99,,,-99.99,,2013-02-17 22:42:00,
2013-02-17 16:52:00,48.0,20.0,29.99,SE,125,6.0,15.0,32,-99.99,,,-99.99,,2013-02-17 22:52:00,
2013-02-17 17:00:00,48.0,23.0,29.96,SSE,165,8.0,19.0,37,-99.99,,,-99.99,,2013-02-17 23:00:00,
2013-02-17 17:02:00,48.0,21.0,29.98,SSE,155,4.0,13.0,34,-99.99,,,-99.99,,2013-02-17 23:02:00,
2013-02-17 17:11:00,48.0,21.0,29.97,South,185,10.0,16.0,34,-99.99,,,-99.99,,2013-02-17 23:11:00,
2013-02-17 17:21:00,48.0,21.0,29.97,South,185,10.0,16.0,34,-99.99,,,-99.99,,2013-02-17 23:21:00,
2013-02-17 17:32:00,48.0,23.0,29.96,South,190,6.0,12.0,37,-99.99,,,-99.99,,2013-02-17 23:32:00,
2013-02-17 17:42:00,48.0,23.0,29.96,SSE,165,8.0,19.0,37,-99.99,,,-99.99,,2013-02-17 23:42:00,
2013-02-17 17:52:00,48.0,23.0,29.96,SSE,165,8.0,19.0,37,-99.99,,,-99.99,,2013-02-17 23:52:00,
2013-02-17 18:11:00,46.0,23.0,29.95,South,170,5.0,12.0,40,-99.99,,,-99.99,,2013-02-18 00:11:00,
2013-02-17 18:22:00,46.0,23.0,29.95,South,170,5.0,12.0,40,-99.99,,,-99.99,,2013-02-18 00:22:00,
2013-02-17 18:32:00,46.0,24.0,29.95,SSW,195,7.0,16.0,43,-99.99,,,-99.99,,2013-02-18 00:32:00,
2013-02-17 18:41:00,45.0,25.0,29.95,South,190,6.0,19.0,45,-99.99,,,-99.99,,2013-02-18 00:41:00,
2013-02-17 18:52:00,45.0,25.0,29.95,South,190,6.0,19.0,45,-99.99,,,-99.99,,2013-02-18 00:52:00,
2013-02-17 19:00:00,44.0,28.0,29.95,South,175,4.0,18.0,54,-99.99,,,-99.99,,2013-02-18 01:00:00,
2013-02-17 19:01:00,44.0,26.0,29.96,SW,220,5.0,21.0,49,-99.99,,,-99.99,,2013-02-18 01:01:00,
2013-02-17 19:12:00,44.0,27.0,29.96,SSW,195,8.0,17.0,50,-99.99,,,-99.99,,2013-02-18 01:12:00,
2013-02-17 19:21:00,44.0,27.0,29.96,SSW,195,8.0,17.0,50,-99.99,,,-99.99,,2013-02-18 01:21:00,
2013-02-17 19:32:00,44.0,28.0,29.95,SSE,155,5.0,20.0,53,-99.99,,,-99.99,,2013-02-18 01:32:00,
2013-02-17 19:41:00,44.0,28.0,29.95,South,175,4.0,18.0,54,-99.99,,,-99.99,,2013-02-18 01:41:00,
2013-02-17 19:51:00,44.0,28.0,29.95,South,175,4.0,18.0,54,-99.99,,,-99.99,,2013-02-18 01:51:00,
2013-02-17 20:11:00,43.0,29.0,29.95,South,180,7.0,17.0,56,-99.99,,,-99.99,,2013-02-18 02:11:00,
2013-02-17 20:21:00,43.0,29.0,29.95,South,180,7.0,17.0,56,-99.99,,,-99.99,,2013-02-18 02:21:00,
2013-02-17 20:32:00,43.0,29.0,29.95,SSW,200,7.0,12.0,57,-99.99,,,-99.99,,2013-02-18 02:32:00,
2013-02-17 20:41:00,43.0,29.0,29.94,South,185,8.0,14.0,57,-99.99,,,-99.99,,2013-02-18 02:41:00,
2013-02-17 20:52:00,43.0,29.0,29.94,South,185,8.0,14.0,57,-99.99,,,-99.99,,2013-02-18 02:52:00,
2013-02-17 21:00:00,42.0,29.0,29.94,SSE,155,1.0,14.0,59,-99.99,,,-99.99,,2013-02-18 03:00:00,
2013-02-17 21:01:00,43.0,29.0,29.94,South,185,7.0,17.0,58,-99.99,,,-99.99,,2013-02-18 03:01:00,
2013-02-17 21:11:00,42.0,29.0,29.94,South,180,7.0,14.0,58,-99.99,,,-99.99,,2013-02-18 03:11:00,
2013-02-17 21:21:00,42.0,29.0,29.94,South,180,7.0,14.0,58,-99.99,,,-99.99,,2013-02-18 03:21:00,
2013-02-17 21:32:00,42.0,29.0,29.94,SSW,205,6.0,13.0,59,-99.99,,,-99.99,,2013-02-18 03:32:00,
2013-02-17 21:42:00,42.0,29.0,29.94,SSE,155,1.0,14.0,59,-99.99,,,-99.99,,2013-02-18 03:42:00,
2013-02-17 21:51:00,42.0,29.0,29.94,SSE,155,1.0,14.0,59,-99.99,,,-99.99,,2013-02-18 03:51:00,
2013-02-17 22:11:00,41.0,29.0,29.93,SW,215,3.0,7.0,61,-99.99,,,-99.99,,2013-02-18 04:11:00,
2013-02-17 22:21:00,41.0,29.0,29.93,SW,215,3.0,7.0,61,-99.99,,,-99.99,,2013-02-18 04:21:00,
2013-02-17 22:32:00,41.0,29.0,29.92,South,170,5.0,13.0,62,-99.99,,,-99.99,,2013-02-18 04:32:00,
2013-02-17 22:42:00,41.0,29.0,29.92,South,190,4.0,12.0,62,-99.99,,,-99.99,,2013-02-18 04:42:00,
2013-02-17 22:51:00,41.0,29.0,29.92,South,190,4.0,12.0,62,-99.99,,,-99.99,,2013-02-18 04:51:00,
2013-02-17 23:02:00,40.0,29.0,29.91,South,180,4.0,11.0,63,-99.99,,,-99.99,,2013-02-18 05:02:00,
2013-02-17 23:11:00,40.0,29.0,29.90,SSW,200,6.0,12.0,63,-99.99,,,-99.99,,2013-02-18 05:11:00,
2013-02-17 23:21:00,40.0,29.0,29.90,SSW,200,6.0,12.0,63,-99.99,,,-99.99,,2013-02-18 05:21:00,
2013-02-17 23:30:00,40.0,29.0,29.89,SSW,200,5.0,9.0,63,-99.99,,,-99.99,,2013-02-18 05:30:00,
2013-02-17 23:31:00,40.0,29.0,29.90,South,185,4.0,11.0,64,-99.99,,,-99.99,,2013-02-18 05:31:00,
2013-02-17 23:41:00,40.0,29.0,29.90,South,190,6.0,10.0,64,-99.99,,,-99.99,,2013-02-18 05:41:00,
2013-02-17 23:52:00,40.0,29.0,29.90,South,190,6.0,10.0,64,-99.99,,,-99.99,,2013-02-18 05:52:00,